Time;durP1;ratioP1;P1;durP2;ratioP2;P2;SDS_P1;SDS_P2;PMS_P1;PMS_P2;Temp;Humidity;BMP_temperature;BMP_pressure;BME280_temperature;BME280_humidity;BME280_pressure;Samples;Min_cycle;Max_cycle;Signal;HPM_P1;HPM_P2
2022/11/16 00:01:12;;;;;;;7.03;6.18;;;10.70;99.90;;;;;;4910608;29;20051;-87
2022/11/16 00:03:38;;;;;;;7.75;7.05;;;10.70;99.90;;;;;;4892557;29;20044;-88
2022/11/16 00:06:06;;;;;;;7.53;6.60;;;10.70;99.90;;;;;;4873085;29;20111;-87
2022/11/16 00:08:34;;;;;;;7.35;6.65;;;10.70;99.90;;;;;;4895128;29;20103;-88
2022/11/16 00:11:09;;;;;;;8.13;6.88;;;10.60;99.90;;;;;;4889924;29;20032;-88
2022/11/16 00:13:35;;;;;;;8.88;7.68;;;11.50;99.90;;;;;;4890255;29;20068;-87
2022/11/16 00:16:02;;;;;;;9.05;7.18;;;10.10;99.90;;;;;;4873491;29;20048;-86
2022/11/16 00:18:28;;;;;;;8.27;7.45;;;10.70;99.90;;;;;;4888542;29;20052;-87
2022/11/16 00:20:54;;;;;;;8.40;7.43;;;10.70;99.90;;;;;;4888549;29;20120;-88
2022/11/16 00:23:20;;;;;;;12.48;8.70;;;10.70;99.90;;;;;;4890606;29;20448;-87
2022/11/16 00:25:45;;;;;;;9.10;8.27;;;10.70;99.90;;;;;;4890363;29;20452;-87
2022/11/16 00:28:14;;;;;;;9.25;8.45;;;11.30;99.90;;;;;;4887955;29;20044;-86
2022/11/16 00:30:40;;;;;;;9.88;7.63;;;11.00;99.90;;;;;;4890203;29;20980;-87
2022/11/16 00:33:06;;;;;;;8.85;7.95;;;10.70;99.90;;;;;;4893160;29;20033;-87
2022/11/16 00:35:37;;;;;;;11.13;8.73;;;10.70;99.90;;;;;;4876390;29;20040;-87
2022/11/16 00:38:02;;;;;;;9.25;8.45;;;10.70;99.90;;;;;;4894898;29;20361;-87
2022/11/16 00:40:28;;;;;;;8.57;7.80;;;10.70;99.90;;;;;;4896199;29;20092;-88
2022/11/16 00:42:54;;;;;;;9.23;8.05;;;10.70;99.90;;;;;;4894541;29;20079;-87
2022/11/16 00:45:19;;;;;;;10.85;8.73;;;11.40;99.90;;;;;;4895112;29;20040;-88
2022/11/16 00:47:45;;;;;;;10.52;9.35;;;10.70;99.90;;;;;;4894577;29;20036;-87
2022/11/16 00:50:10;;;;;;;10.40;8.52;;;10.70;99.90;;;;;;4893077;29;20045;-88
2022/11/16 00:52:36;;;;;;;9.00;8.13;;;11.10;99.90;;;;;;4893761;29;20404;-88
2022/11/16 00:55:01;;;;;;;9.82;8.93;;;10.70;99.90;;;;;;4891734;29;20051;-86
2022/11/16 00:57:27;;;;;;;11.05;9.90;;;10.80;99.90;;;;;;4886550;29;20051;-87
2022/11/16 00:59:52;;;;;;;10.45;8.70;;;10.70;99.90;;;;;;4888301;29;20053;-87
2022/11/16 01:02:18;;;;;;;9.32;8.52;;;10.80;99.90;;;;;;4890851;29;20045;-87
2022/11/16 01:04:43;;;;;;;10.48;9.40;;;10.80;99.90;;;;;;4905051;29;20052;-87
2022/11/16 01:07:09;;;;;;;9.55;8.70;;;10.70;99.90;;;;;;4904079;29;20043;-87
2022/11/16 01:09:35;;;;;;;11.90;10.00;;;10.80;99.90;;;;;;4888356;29;20081;-87
2022/11/16 01:12:09;;;;;;;11.45;10.10;;;10.80;99.90;;;;;;4904745;29;20127;-87
2022/11/16 01:14:40;;;;;;;10.88;9.77;;;10.80;99.90;;;;;;4888719;29;20079;-87
2022/11/16 01:17:06;;;;;;;11.13;10.05;;;10.80;99.90;;;;;;4889234;29;20074;-88
2022/11/16 01:19:31;;;;;;;10.48;9.48;;;10.70;99.90;;;;;;4889699;29;20507;-87
2022/11/16 01:22:00;;;;;;;12.93;9.90;;;10.80;99.90;;;;;;4872716;29;20052;-87
2022/11/16 01:24:26;;;;;;;11.35;10.30;;;10.70;99.90;;;;;;4884830;29;20041;-87
2022/11/16 01:26:56;;;;;;;11.23;9.93;;;10.80;99.90;;;;;;4887335;29;20040;-87
2022/11/16 01:29:27;;;;;;;10.95;9.80;;;10.80;99.90;;;;;;4889093;29;20689;-87
2022/11/16 01:31:53;;;;;;;14.38;11.20;;;10.80;99.90;;;;;;4887172;29;20046;-87
2022/11/16 01:34:19;;;;;;;13.90;11.10;;;10.70;99.90;;;;;;4887496;29;20052;-88
2022/11/16 01:36:45;;;;;;;11.85;10.68;;;10.80;99.90;;;;;;4888077;29;20059;-88
2022/11/16 01:39:12;;;;;;;12.35;10.05;;;10.80;99.90;;;;;;4888491;29;20045;-87
2022/11/16 01:41:38;;;;;;;12.15;10.52;;;10.70;99.90;;;;;;4885959;29;20167;-87
2022/11/16 01:44:26;;;;;;;13.02;11.45;;;10.80;99.90;;;;;;4888349;29;20621;-88
2022/11/16 01:46:51;;;;;;;13.10;11.38;;;11.40;99.90;;;;;;4887387;29;20099;-87
2022/11/16 01:49:21;;;;;;;11.43;10.32;;;10.90;99.90;;;;;;4889705;29;20040;-86
2022/11/16 01:51:51;;;;;;;12.93;10.43;;;10.80;99.90;;;;;;4889152;29;20064;-87
2022/11/16 01:54:17;;;;;;;11.80;10.60;;;11.20;99.90;;;;;;4885136;29;20036;-87
2022/11/16 01:56:46;;;;;;;12.30;10.48;;;10.80;99.90;;;;;;4889351;29;20115;-87
2022/11/16 01:59:13;;;;;;;11.43;10.23;;;10.80;99.90;;;;;;4872665;29;20048;-87
2022/11/16 02:01:41;;;;;;;11.32;10.23;;;10.80;99.90;;;;;;4887650;29;20542;-87
2022/11/16 02:04:12;;;;;;;11.57;9.93;;;11.20;99.90;;;;;;4886672;29;20080;-87
2022/11/16 02:07:22;;;;;;;12.80;10.85;;;11.20;99.90;;;;;;4890223;29;20488;-88
2022/11/16 02:10:07;;;;;;;10.82;9.68;;;10.90;99.90;;;;;;4917959;29;20516;-87
2022/11/16 02:13:02;;;;;;;10.20;9.10;;;10.90;99.90;;;;;;4872404;29;20036;-87
2022/11/16 02:15:44;;;;;;;10.63;9.65;;;10.90;99.90;;;;;;4887582;29;20049;-87
2022/11/16 02:18:37;;;;;;;11.63;10.00;;;10.90;99.90;;;;;;4887515;29;20044;-87
2022/11/16 02:21:14;;;;;;;10.95;9.52;;;10.90;99.90;;;;;;4889003;29;20447;-88
2022/11/16 02:24:02;;;;;;;10.20;8.98;;;10.90;99.90;;;;;;4871711;29;20086;-87
2022/11/16 02:26:43;;;;;;;10.80;9.32;;;10.90;99.90;;;;;;4872157;29;20040;-87
2022/11/16 02:29:38;;;;;;;10.02;9.02;;;10.90;99.90;;;;;;4885854;29;20180;-88
2022/11/16 02:32:19;;;;;;;9.88;8.85;;;10.20;99.90;;;;;;4886178;29;20043;-87
2022/11/16 02:34:55;;;;;;;10.77;9.77;;;10.90;99.90;;;;;;4899526;29;20052;-87
2022/11/16 02:37:24;;;;;;;12.15;9.02;;;12.00;99.90;;;;;;4888050;29;20037;-88
2022/11/16 02:39:56;;;;;;;10.00;8.95;;;10.90;99.90;;;;;;4888832;29;20059;-88
2022/11/16 02:42:35;;;;;;;10.43;9.43;;;10.90;99.90;;;;;;4871315;29;20530;-87
2022/11/16 02:45:04;;;;;;;10.75;9.13;;;10.90;99.90;;;;;;4887169;29;20041;-88
2022/11/16 02:47:33;;;;;;;12.07;9.95;;;11.00;99.90;;;;;;4885888;29;20048;-86
2022/11/16 02:50:05;;;;;;;11.38;10.07;;;11.70;99.90;;;;;;4887195;29;20064;-88
2022/11/16 02:52:31;;;;;;;10.65;8.88;;;10.90;99.90;;;;;;4889314;29;20124;-88
2022/11/16 02:54:56;;;;;;;12.48;9.40;;;11.00;99.90;;;;;;4903976;29;20139;-87
2022/11/16 02:57:39;;;;;;;10.23;9.10;;;11.00;99.90;;;;;;4887454;29;20045;-88
2022/11/16 03:00:09;;;;;;;10.98;8.63;;;10.90;99.90;;;;;;4893157;29;20047;-87
2022/11/16 03:03:00;;;;;;;9.55;8.68;;;11.00;99.90;;;;;;4905308;29;20044;-88
2022/11/16 03:05:44;;;;;;;11.35;9.38;;;11.20;99.90;;;;;;4890297;29;20068;-87
2022/11/16 03:08:25;;;;;;;11.40;9.23;;;11.40;99.90;;;;;;4900400;29;20055;-88
2022/11/16 03:13:40;;;;;;;12.48;10.07;;;10.90;99.90;;;;;;4896897;29;20053;-86
2022/11/16 03:16:12;;;;;;;14.15;10.60;;;10.90;99.90;;;;;;4877939;29;20049;-87
2022/11/16 03:18:39;;;;;;;11.75;9.52;;;11.20;99.90;;;;;;4894955;29;20040;-88
2022/11/16 03:21:36;;;;;;;12.35;10.00;;;11.70;99.90;;;;;;4896767;29;20503;-88
2022/11/16 03:24:03;;;;;;;13.23;10.50;;;10.90;99.90;;;;;;4897756;29;20175;-87
2022/11/16 03:26:38;;;;;;;12.93;10.77;;;10.90;99.90;;;;;;4897176;29;20116;-87
2022/11/16 03:29:22;;;;;;;13.80;11.63;;;10.90;99.90;;;;;;4897213;29;20041;-87
2022/11/16 03:31:54;;;;;;;15.43;13.20;;;10.90;99.90;;;;;;4895551;29;20044;-87
2022/11/16 03:34:41;;;;;;;20.55;15.77;;;10.90;99.90;;;;;;4895116;29;20500;-88
2022/11/16 03:37:12;;;;;;;21.55;16.77;;;10.90;99.90;;;;;;4873481;29;20048;-87
2022/11/16 03:39:59;;;;;;;26.08;19.77;;;10.90;99.90;;;;;;4874324;29;20511;-88
2022/11/16 03:42:55;;;;;;;28.05;21.90;;;10.90;99.90;;;;;;4890817;29;20321;-87
2022/11/16 03:45:21;;;;;;;27.27;23.52;;;10.90;99.90;;;;;;4891181;29;20040;-88
2022/11/16 03:48:23;;;;;;;30.30;24.85;;;11.10;99.90;;;;;;4891412;29;20806;-87
2022/11/16 03:51:00;;;;;;;32.80;25.88;;;10.90;99.90;;;;;;4927963;29;20043;-88
2022/11/16 03:54:05;;;;;;;30.90;26.48;;;10.90;99.90;;;;;;4907730;29;20135;-87
2022/11/16 03:57:37;;;;;;;27.95;23.05;;;10.90;99.90;;;;;;4837940;29;20057;-87
2022/11/16 04:01:08;;;;;;;22.05;18.55;;;10.90;99.90;;;;;;4922898;29;20054;-87
2022/11/16 04:03:57;;;;;;;21.77;17.33;;;10.90;99.90;;;;;;4897611;29;20241;-87
2022/11/16 04:25:46;;;;;;;12.25;10.23;;;11.80;99.90;;;;;;4891877;29;20051;-87
2022/11/16 04:28:15;;;;;;;13.57;10.45;;;10.80;99.90;;;;;;4887516;29;20080;-87
2022/11/16 04:39:45;;;;;;;15.10;12.57;;;10.80;99.90;;;;;;4890784;29;20104;-87
2022/11/16 04:42:40;;;;;;;15.95;11.15;;;10.80;99.90;;;;;;4890091;29;20075;-87
2022/11/16 04:48:00;;;;;;;13.20;11.73;;;10.80;99.90;;;;;;4890404;29;20048;-87
2022/11/16 04:50:25;;;;;;;11.95;10.80;;;10.80;99.90;;;;;;4889783;29;20447;-87
2022/11/16 04:52:53;;;;;;;12.85;11.55;;;10.80;99.90;;;;;;4892817;29;20036;-87
2022/11/16 04:55:40;;;;;;;13.35;11.50;;;10.90;99.90;;;;;;4892694;29;20047;-88
2022/11/16 04:58:27;;;;;;;15.85;10.82;;;10.80;99.90;;;;;;4906988;29;20044;-86
2022/11/16 05:00:53;;;;;;;14.02;12.15;;;10.80;99.90;;;;;;4886451;29;20049;-87
2022/11/16 05:03:18;;;;;;;12.32;11.13;;;11.30;99.90;;;;;;4873144;29;20060;-87
2022/11/16 05:05:44;;;;;;;12.48;11.07;;;10.90;99.90;;;;;;4890890;29;20048;-87
2022/11/16 05:08:09;;;;;;;13.65;11.93;;;10.90;99.90;;;;;;4894849;29;20527;-87
2022/11/16 05:10:35;;;;;;;12.30;11.05;;;10.90;99.90;;;;;;4879392;29;20040;-87
2022/11/16 05:13:01;;;;;;;10.95;9.95;;;11.40;99.90;;;;;;4894141;29;20048;-88
2022/11/16 05:15:27;;;;;;;13.93;10.73;;;11.00;99.90;;;;;;4891314;29;20127;-88
2022/11/16 05:17:54;;;;;;;11.30;10.20;;;10.90;99.90;;;;;;4902949;29;20526;-89
2022/11/16 05:24:32;;;;;;;12.55;11.25;;;10.90;99.90;;;;;;4898744;29;20140;-87
2022/11/16 05:25:58;;;;;;;12.63;11.32;;;11.30;99.90;;;;;;4894090;29;20591;-86
2022/11/16 05:28:25;;;;;;;12.63;11.38;;;10.90;99.90;;;;;;4908068;29;20135;-87
2022/11/16 05:30:51;;;;;;;14.88;11.60;;;10.90;99.90;;;;;;4891062;29;20048;-87
2022/11/16 05:33:17;;;;;;;12.73;10.80;;;11.00;99.90;;;;;;4909464;29;20040;-87
2022/11/16 05:35:55;;;;;;;13.60;12.20;;;11.00;99.90;;;;;;4911134;29;20048;-88
2022/11/16 05:38:21;;;;;;;12.90;11.68;;;10.90;99.90;;;;;;4879156;29;20047;-87
2022/11/16 05:40:48;;;;;;;15.85;12.15;;;10.90;99.90;;;;;;4885724;29;20049;-87
2022/11/16 05:43:17;;;;;;;16.52;13.10;;;10.70;99.90;;;;;;4879728;29;20036;-88
2022/11/16 05:45:52;;;;;;;12.48;11.27;;;11.20;99.90;;;;;;4880747;29;20033;-88
2022/11/16 05:48:28;;;;;;;13.83;11.70;;;11.60;99.90;;;;;;4895319;29;20044;-88
2022/11/16 05:51:30;;;;;;;13.07;11.25;;;10.90;99.90;;;;;;4879312;29;20325;-86
2022/11/16 05:54:30;;;;;;;13.88;12.15;;;10.90;99.90;;;;;;4888469;29;20037;-86
2022/11/16 05:56:57;;;;;;;16.35;12.20;;;10.90;99.90;;;;;;4906603;29;20053;-86
2022/11/16 05:59:49;;;;;;;13.88;12.43;;;10.90;99.90;;;;;;4879928;29;20416;-86
2022/11/16 06:03:05;;;;;;;12.77;11.63;;;10.90;99.90;;;;;;4899587;29;20051;-86
2022/11/16 06:46:33;;;;;;;8.43;7.63;;;11.00;99.90;;;;;;4890950;29;20107;-83
2022/11/16 06:49:05;;;;;;;9.30;8.30;;;11.10;99.90;;;;;;4879345;29;20388;-85
2022/11/16 06:51:30;;;;;;;8.60;7.82;;;11.00;99.90;;;;;;4908579;29;20048;-84
2022/11/16 06:53:56;;;;;;;10.18;8.10;;;11.00;99.90;;;;;;4894056;29;20490;-86
2022/11/16 06:56:21;;;;;;;8.02;7.32;;;11.00;99.90;;;;;;4881770;29;20492;-82
2022/11/16 06:58:47;;;;;;;7.40;6.70;;;11.60;99.90;;;;;;4890111;29;20511;-84
2022/11/16 07:01:12;;;;;;;7.05;6.45;;;11.00;99.90;;;;;;4893937;29;20079;-86
2022/11/16 07:03:42;;;;;;;6.22;5.63;;;10.90;99.90;;;;;;4910043;29;20048;-86
2022/11/16 07:06:11;;;;;;;6.55;5.95;;;11.00;99.90;;;;;;4880019;29;20041;-86
2022/11/16 07:08:37;;;;;;;7.53;6.50;;;11.00;99.90;;;;;;4894115;29;20044;-86
2022/11/16 07:11:07;;;;;;;6.10;5.60;;;11.00;99.90;;;;;;4878024;29;20559;-86
2022/11/16 07:13:35;;;;;;;7.80;7.00;;;11.00;99.90;;;;;;4895668;29;20392;-86
2022/11/16 07:16:10;;;;;;;7.18;6.57;;;11.00;99.90;;;;;;4876969;29;20055;-86
2022/11/16 07:18:39;;;;;;;;;;;11.00;99.90;;;;;;4889281;29;20047;-86
2022/11/16 07:21:20;;;;;;;9.17;8.00;;;11.00;99.90;;;;;;4894464;29;19919;-86
2022/11/16 07:23:47;;;;;;;8.15;7.35;;;11.00;99.90;;;;;;4894992;29;20301;-86
2022/11/16 07:26:18;;;;;;;7.25;6.55;;;11.00;99.90;;;;;;4865350;29;20111;-86
2022/11/16 07:28:47;;;;;;;9.82;6.65;;;11.00;99.90;;;;;;4862154;29;20048;-86
2022/11/16 07:31:15;;;;;;;7.57;6.88;;;10.90;99.90;;;;;;4866012;29;20499;-86
2022/11/16 07:34:13;;;;;;;7.20;6.50;;;11.00;99.90;;;;;;4881423;29;20047;-87
2022/11/16 07:40:46;;;;;;;8.82;7.90;;;11.00;99.90;;;;;;4890776;29;20096;-88
2022/11/16 07:43:34;;;;;;;8.70;7.65;;;11.10;99.90;;;;;;4904400;29;20104;-88
2022/11/16 07:46:39;;;;;;;8.88;7.97;;;11.00;99.90;;;;;;4877266;29;20555;-88
2022/11/16 07:49:27;;;;;;;10.52;9.52;;;11.00;99.90;;;;;;4872103;29;20087;-88
2022/11/16 07:51:52;;;;;;;13.90;10.02;;;11.10;99.90;;;;;;4888874;29;20144;-88
2022/11/16 07:54:25;;;;;;;8.93;8.23;;;11.00;99.90;;;;;;4891988;29;20319;-88
2022/11/16 07:56:51;;;;;;;8.48;7.68;;;11.60;99.90;;;;;;4890431;29;20086;-88
2022/11/16 07:59:16;;;;;;;9.95;9.05;;;11.00;99.90;;;;;;4891333;29;20083;-88
2022/11/16 08:01:42;;;;;;;8.77;7.97;;;11.00;99.90;;;;;;4891213;29;20040;-88
2022/11/16 08:04:07;;;;;;;10.80;9.73;;;11.00;99.90;;;;;;4910293;29;20049;-88
2022/11/16 08:06:33;;;;;;;10.43;9.52;;;11.00;99.90;;;;;;4891952;29;20040;-88
2022/11/16 08:08:59;;;;;;;10.13;9.13;;;11.00;99.90;;;;;;4892026;29;20028;-87
2022/11/16 08:11:25;;;;;;;10.90;9.82;;;11.40;99.90;;;;;;4890666;29;20102;-90
2022/11/16 08:13:50;;;;;;;10.30;9.40;;;11.00;99.90;;;;;;4879122;29;20044;-88
2022/11/16 08:16:19;;;;;;;14.82;11.38;;;12.00;99.90;;;;;;4889446;29;20051;-88
2022/11/16 08:18:45;;;;;;;15.63;11.18;;;11.00;99.90;;;;;;4890986;29;20049;-88
2022/11/16 08:21:13;;;;;;;15.15;11.40;;;11.00;99.90;;;;;;4891977;29;20100;-88
2022/11/16 08:23:41;;;;;;;11.75;10.57;;;11.00;99.90;;;;;;4878146;29;20699;-88
2022/11/16 08:26:12;;;;;;;12.02;10.93;;;10.90;99.90;;;;;;4874370;29;20044;-89
2022/11/16 08:28:38;;;;;;;11.60;10.40;;;11.50;99.90;;;;;;4892586;29;20048;-89
2022/11/16 08:31:15;;;;;;;12.52;10.85;;;11.00;99.90;;;;;;4907957;29;20431;-89
2022/11/16 08:33:41;;;;;;;13.07;11.20;;;12.00;99.90;;;;;;4879002;29;20071;-88
2022/11/16 08:36:16;;;;;;;11.02;9.93;;;10.90;99.90;;;;;;4894937;29;20076;-89
2022/11/16 08:38:45;;;;;;;15.43;12.85;;;10.90;99.90;;;;;;4892015;29;20814;-88
2022/11/16 08:41:16;;;;;;;15.20;12.27;;;10.90;99.90;;;;;;4915560;29;20100;-88
2022/11/16 08:43:43;;;;;;;9.85;8.95;;;10.80;99.90;;;;;;4893940;29;20055;-88
2022/11/16 08:46:12;;;;;;;12.10;10.80;;;10.90;99.90;;;;;;4891258;29;20506;-88
2022/11/16 08:48:38;;;;;;;10.93;9.82;;;10.90;99.90;;;;;;4889568;29;20037;-88
2022/11/16 08:51:06;;;;;;;10.90;9.80;;;11.00;99.90;;;;;;4890053;29;20103;-89
2022/11/16 08:53:40;;;;;;;10.00;9.10;;;10.90;99.90;;;;;;4890762;29;20080;-88
2022/11/16 08:56:08;;;;;;;13.07;11.43;;;11.60;99.90;;;;;;4906383;29;20040;-88
2022/11/16 08:58:37;;;;;;;10.95;9.85;;;11.10;99.90;;;;;;4910932;29;20037;-89
2022/11/16 09:01:12;;;;;;;10.25;9.30;;;11.10;99.90;;;;;;4893019;29;20047;-89
2022/11/16 09:04:02;;;;;;;12.18;9.38;;;11.10;99.90;;;;;;4905189;29;20087;-88
2022/11/16 09:06:53;;;;;;;8.68;7.80;;;11.30;99.90;;;;;;4901199;29;20057;-88
2022/11/16 09:09:50;;;;;;;8.85;7.88;;;11.20;99.90;;;;;;4893705;29;20538;-88
2022/11/16 17:35:55;;;;;;;5.68;1.80;;;9.00;99.90;;;;;;4894164;29;20059;-85
2022/11/16 17:38:26;;;;;;;8.10;2.28;;;8.90;99.90;;;;;;4889873;29;20056;-88
2022/11/16 17:40:51;;;;;;;8.23;2.60;;;9.00;99.90;;;;;;4892696;29;20076;-86
2022/11/16 17:43:17;;;;;;;8.88;2.85;;;9.10;99.90;;;;;;4870281;29;20203;-86
2022/11/16 17:45:43;;;;;;;9.52;2.85;;;9.00;99.90;;;;;;4891588;29;20040;-87
2022/11/16 17:48:08;;;;;;;15.02;3.05;;;9.10;99.90;;;;;;4889426;29;20040;-86
2022/11/16 17:50:37;;;;;;;10.38;3.17;;;9.10;99.90;;;;;;4905354;29;20045;-86
2022/11/16 17:53:03;;;;;;;11.90;6.25;;;9.10;99.90;;;;;;4890657;29;20045;-87
2022/11/16 17:55:28;;;;;;;10.10;5.95;;;8.90;99.90;;;;;;4876831;29;20463;-87
2022/11/16 17:57:55;;;;;;;15.43;4.75;;;9.00;99.90;;;;;;4891099;29;20679;-88
2022/11/16 18:00:20;;;;;;;8.55;3.63;;;9.00;99.90;;;;;;4870136;29;20048;-86
2022/11/16 18:02:47;;;;;;;5.78;3.10;;;9.00;99.90;;;;;;4890353;29;20037;-85
2022/11/16 18:05:15;;;;;;;9.20;3.05;;;9.10;99.90;;;;;;4888327;29;20037;-86
2022/11/16 18:07:41;;;;;;;10.98;3.30;;;9.10;99.90;;;;;;4875261;29;20045;-85
2022/11/16 18:10:07;;;;;;;6.10;2.60;;;9.10;99.90;;;;;;4883984;29;20064;-85
2022/11/16 18:12:32;;;;;;;10.88;3.70;;;9.00;99.90;;;;;;4876566;29;20076;-85
2022/11/16 18:15:01;;;;;;;7.25;2.92;;;9.10;99.90;;;;;;4873892;29;20087;-90
2022/11/16 18:17:39;;;;;;;7.28;3.13;;;9.00;99.90;;;;;;4893332;29;20040;-91
2022/11/16 18:20:07;;;;;;;11.10;3.58;;;9.00;99.90;;;;;;4877118;29;20052;-88
2022/11/16 18:22:37;;;;;;;7.78;3.33;;;9.20;99.90;;;;;;4897913;29;20052;-88
2022/11/16 18:25:24;;;;;;;8.55;3.25;;;9.20;99.90;;;;;;4893554;29;20052;-90
2022/11/16 18:28:14;;;;;;;7.88;2.67;;;9.20;99.90;;;;;;4876455;29;20048;-87
2022/11/16 18:31:21;;;;;;;9.27;3.35;;;9.20;99.90;;;;;;4902558;29;20507;-89
2022/11/16 18:33:50;;;;;;;8.65;4.00;;;9.30;99.90;;;;;;4914615;29;20048;-89
2022/11/16 18:36:23;;;;;;;11.93;4.03;;;9.20;99.90;;;;;;4881605;29;20048;-91
2022/11/16 18:38:49;;;;;;;8.75;3.78;;;9.20;99.90;;;;;;4912935;29;20101;-89
2022/11/16 18:41:20;;;;;;;8.98;3.92;;;9.10;99.90;;;;;;4895169;29;20049;-88
2022/11/16 18:43:54;;;;;;;9.82;4.45;;;9.10;99.90;;;;;;4897411;29;20127;-88
2022/11/16 18:46:25;;;;;;;15.38;5.70;;;9.10;99.90;;;;;;4894745;29;20055;-88
2022/11/16 18:48:51;;;;;;;8.73;5.70;;;9.00;99.90;;;;;;4912572;29;20055;-89
2022/11/16 18:51:18;;;;;;;17.50;8.65;;;8.90;99.90;;;;;;4897877;29;20036;-90
2022/11/16 18:53:44;;;;;;;21.35;7.10;;;9.50;99.90;;;;;;4886707;29;20052;-90
2022/11/16 18:56:10;;;;;;;18.55;9.77;;;8.90;99.90;;;;;;4899788;29;20041;-91
2022/11/16 18:58:36;;;;;;;20.90;10.60;;;8.80;99.90;;;;;;4900569;29;20047;-92
2022/11/16 19:01:04;;;;;;;17.95;11.57;;;8.60;99.90;;;;;;4901432;29;20048;-91
2022/11/16 19:03:30;;;;;;;23.50;12.35;;;8.80;99.90;;;;;;4886753;29;20067;-90
2022/11/16 19:06:02;;;;;;;17.23;14.30;;;8.80;99.90;;;;;;4885692;29;20562;-90
2022/11/16 19:08:28;;;;;;;22.33;15.15;;;8.80;99.90;;;;;;4901417;29;20047;-91
2022/11/16 19:10:54;;;;;;;21.80;17.05;;;8.70;99.90;;;;;;4886524;29;20040;-90
2022/11/16 19:13:21;;;;;;;25.83;19.38;;;8.70;99.90;;;;;;4884517;29;20048;-91
2022/11/16 19:15:48;;;;;;;24.98;20.02;;;8.70;99.90;;;;;;4898318;29;20039;-89
2022/11/16 19:18:14;;;;;;;24.27;21.40;;;8.70;99.90;;;;;;4897408;29;20446;-90
2022/11/16 19:20:40;;;;;;;29.33;23.13;;;8.80;99.90;;;;;;4902056;29;20482;-90
2022/11/16 19:23:06;;;;;;;27.95;24.50;;;8.80;99.90;;;;;;4877737;29;20044;-87
2022/11/16 19:25:31;;;;;;;35.53;25.48;;;8.70;99.90;;;;;;4899530;29;20040;-86
2022/11/16 19:27:57;;;;;;;36.33;27.63;;;8.70;99.90;;;;;;4896906;29;20529;-85
2022/11/16 19:30:22;;;;;;;35.47;27.35;;;8.80;99.90;;;;;;4900706;29;20062;-90
2022/11/16 19:32:53;;;;;;;39.10;31.50;;;8.90;99.90;;;;;;4900840;29;20040;-89
2022/11/16 19:35:19;;;;;;;38.70;28.77;;;8.70;99.90;;;;;;4901888;29;20056;-90
2022/11/16 19:37:44;;;;;;;37.83;30.42;;;9.70;99.90;;;;;;4894571;29;20045;-90
2022/11/16 19:40:10;;;;;;;43.13;31.33;;;8.90;99.90;;;;;;4896879;29;20044;-89
2022/11/16 19:42:36;;;;;;;37.67;29.33;;;8.80;99.90;;;;;;4894898;29;20128;-89
2022/11/16 19:45:02;;;;;;;39.83;31.73;;;9.30;99.90;;;;;;4894538;29;20044;-89
2022/11/16 19:47:29;;;;;;;44.08;30.85;;;8.80;99.90;;;;;;4882958;29;20044;-90
2022/11/16 19:49:54;;;;;;;45.53;32.33;;;9.30;99.90;;;;;;4895283;29;20044;-89
2022/11/16 19:52:20;;;;;;;41.25;31.50;;;8.80;99.90;;;;;;4896576;29;20047;-89
2022/11/16 19:54:46;;;;;;;50.65;34.28;;;8.80;99.90;;;;;;4899474;29;20036;-90
2022/11/16 19:57:11;;;;;;;38.70;30.98;;;8.40;99.90;;;;;;4879822;29;20073;-90
2022/11/16 19:59:37;;;;;;;45.28;32.78;;;9.50;99.90;;;;;;4895769;29;20072;-88
2022/11/16 20:02:03;;;;;;;41.25;31.35;;;8.70;99.90;;;;;;4895722;29;20043;-91
2022/11/16 20:04:33;;;;;;;38.80;29.55;;;9.00;99.90;;;;;;4889670;29;20807;-90
2022/11/16 20:06:58;;;;;;;39.85;29.58;;;8.60;99.90;;;;;;4893015;29;20651;-90
2022/11/16 20:09:24;;;;;;;40.58;28.85;;;8.60;99.90;;;;;;4892289;29;20062;-90
2022/11/16 20:22:49;;;;;;;41.90;30.35;;;8.40;99.90;;;;;;4892311;29;20095;-85
2022/11/16 20:26:05;;;;;;;34.30;28.27;;;8.40;99.90;;;;;;4890854;29;20217;-86
2022/11/16 20:28:59;;;;;;;38.90;28.85;;;8.30;99.90;;;;;;4894173;29;20088;-87
2022/11/16 20:31:28;;;;;;;38.72;29.85;;;8.30;99.90;;;;;;4894822;29;20044;-86
2022/11/16 20:33:59;;;;;;;37.25;28.23;;;8.30;99.90;;;;;;4898106;29;20500;-86
2022/11/16 20:36:34;;;;;;;37.92;27.77;;;8.20;99.90;;;;;;4894040;29;20044;-86
2022/11/16 20:42:42;;;;;;;35.17;28.65;;;8.30;99.90;;;;;;4897593;29;20088;-86
2022/11/16 20:45:20;;;;;;;41.55;31.02;;;8.10;99.90;;;;;;4877150;29;20542;-86
2022/11/16 20:47:46;;;;;;;36.38;28.60;;;8.10;99.90;;;;;;4893710;29;20044;-85
2022/11/16 20:50:15;;;;;;;34.90;28.10;;;8.10;99.90;;;;;;4892557;29;20554;-86
2022/11/16 20:52:41;;;;;;;38.72;29.63;;;8.10;99.90;;;;;;4888463;29;20044;-85
2022/11/16 20:55:26;;;;;;;40.13;27.45;;;8.10;99.90;;;;;;4892979;29;20051;-86
2022/11/16 20:58:51;;;;;;;31.83;25.52;;;8.10;99.90;;;;;;4892200;29;20187;-85
2022/11/16 21:01:46;;;;;;;34.53;25.52;;;8.20;99.90;;;;;;4893654;29;20055;-86
2022/11/16 21:04:14;;;;;;;34.28;25.05;;;8.20;99.90;;;;;;4875890;29;20070;-84
2022/11/16 21:06:49;;;;;;;32.35;25.30;;;8.20;99.90;;;;;;4904922;29;20044;-86
2022/11/16 21:10:17;;;;;;;33.53;25.40;;;8.20;99.90;;;;;;4903382;29;20051;-85
2022/11/16 21:15:18;;;;;;;30.35;23.92;;;8.20;99.90;;;;;;4891899;29;20091;-85
2022/11/16 22:02:37;;;;;;;27.17;19.75;;;8.40;99.90;;;;;;4891636;29;20526;-86
2022/11/16 22:08:42;;;;;;;24.75;19.42;;;8.40;99.90;;;;;;4897469;29;20499;-85
2022/11/16 22:11:51;;;;;;;25.13;20.33;;;8.40;99.90;;;;;;4894779;29;20443;-86
2022/11/16 22:14:29;;;;;;;25.08;19.05;;;8.40;99.90;;;;;;4879890;29;20104;-86
2022/11/16 22:17:21;;;;;;;25.48;19.85;;;9.20;99.90;;;;;;4906757;29;20128;-85
2022/11/16 22:19:47;;;;;;;24.95;19.58;;;8.30;99.90;;;;;;4877113;29;20040;-89
2022/11/16 22:25:32;;;;;;;24.75;18.92;;;8.40;99.90;;;;;;4893363;29;20051;-86
2022/11/16 22:27:57;;;;;;;23.25;18.85;;;8.30;99.90;;;;;;4910149;29;20044;-85
2022/11/16 22:30:23;;;;;;;22.55;18.27;;;8.90;99.90;;;;;;4891174;29;20033;-85
2022/11/16 22:32:49;;;;;;;24.52;20.35;;;8.30;99.90;;;;;;4892613;29;20036;-85
2022/11/16 22:35:14;;;;;;;26.60;19.38;;;8.30;99.90;;;;;;4894947;29;20040;-85
2022/11/16 22:37:41;;;;;;;26.05;21.02;;;8.30;99.90;;;;;;4896499;29;20040;-85
2022/11/16 22:40:08;;;;;;;26.40;19.83;;;8.50;99.90;;;;;;4892620;29;20436;-85
2022/11/16 22:42:33;;;;;;;24.20;19.88;;;8.30;99.90;;;;;;4891568;29;20056;-86
2022/11/16 22:44:59;;;;;;;28.00;20.27;;;8.30;99.90;;;;;;4881693;29;20124;-87
2022/11/16 22:47:24;;;;;;;25.20;19.67;;;8.30;99.90;;;;;;4895260;29;20049;-85
2022/11/16 22:49:51;;;;;;;25.83;20.17;;;8.40;99.90;;;;;;4892607;29;20112;-85
2022/11/16 22:52:16;;;;;;;27.20;19.65;;;8.30;99.90;;;;;;4902392;29;20048;-85
2022/11/16 22:54:42;;;;;;;25.63;20.08;;;8.30;99.90;;;;;;4894670;29;20448;-85
2022/11/16 22:57:07;;;;;;;26.05;19.23;;;9.20;99.90;;;;;;4876425;29;20408;-87
2022/11/16 22:59:33;;;;;;;26.10;20.52;;;8.90;99.90;;;;;;4885205;29;20037;-85
2022/11/16 23:01:59;;;;;;;23.92;18.05;;;8.60;99.90;;;;;;4892834;29;20045;-85
2022/11/16 23:04:25;;;;;;;25.73;18.77;;;8.30;99.90;;;;;;4894581;29;20056;-85
2022/11/16 23:06:54;;;;;;;23.92;18.50;;;8.30;99.90;;;;;;4895324;29;20045;-86
2022/11/16 23:09:22;;;;;;;26.30;19.48;;;8.30;99.90;;;;;;4892977;29;20047;-85
2022/11/16 23:17:15;;;;;;;23.70;17.98;;;8.30;99.90;;;;;;4898107;29;20048;-85
2022/11/16 23:28:04;;;;;;;24.50;19.13;;;8.40;99.90;;;;;;4900146;29;20048;-86
2022/11/16 23:30:30;;;;;;;;;;;8.30;99.90;;;;;;4895610;29;20436;-85
2022/11/16 23:32:56;;;;;;;27.88;19.13;;;8.60;99.90;;;;;;4881401;29;20049;-84
2022/11/16 23:35:22;;;;;;;28.77;18.35;;;8.50;99.90;;;;;;4897333;29;20040;-86
2022/11/16 23:37:50;;;;;;;23.92;18.17;;;8.30;99.90;;;;;;4881324;29;20432;-86
2022/11/16 23:40:16;;;;;;;24.05;17.95;;;8.40;99.90;;;;;;4883520;29;20127;-85
2022/11/16 23:45:26;;;;;;;27.98;18.10;;;8.30;99.90;;;;;;4897054;29;20048;-86
2022/11/16 23:47:52;;;;;;;24.95;18.63;;;8.40;99.90;;;;;;4881490;29;20053;-86
2022/11/16 23:50:17;;;;;;;26.75;17.88;;;8.40;99.90;;;;;;4896222;29;20424;-85
2022/11/16 23:52:43;;;;;;;23.05;17.70;;;8.40;99.90;;;;;;4897572;29;20620;-85
2022/11/16 23:55:08;;;;;;;25.48;17.50;;;8.40;99.90;;;;;;4898361;29;20040;-86
2022/11/16 23:57:34;;;;;;;23.13;17.55;;;8.60;99.90;;;;;;4897432;29;20409;-85
